Time;durP1;ratioP1;P1;durP2;ratioP2;P2;SDS_P1;SDS_P2;PMS_P1;PMS_P2;Temp;Humidity;BMP_temperature;BMP_pressure;BME280_temperature;BME280_humidity;BME280_pressure;Samples;Min_cycle;Max_cycle;Signal;HPM_P1;HPM_P2
2022/08/26 00:02:52;;;;;;;96.55;57.58;;;26.70;99.90;;;;;;5088406;28;20069;-67
2022/08/26 00:05:21;;;;;;;89.00;57.33;;;26.80;99.90;;;;;;5078200;28;20082;-67
2022/08/26 00:07:59;;;;;;;77.38;53.00;;;26.70;99.90;;;;;;5078670;28;20072;-67
2022/08/26 00:10:29;;;;;;;73.18;49.30;;;26.70;99.90;;;;;;5079540;28;20078;-67
2022/08/26 00:12:55;;;;;;;71.35;45.03;;;26.80;99.90;;;;;;5078201;28;20016;-66
2022/08/26 00:15:30;;;;;;;68.78;48.65;;;26.80;99.90;;;;;;5079299;28;20031;-66
2022/08/26 00:18:00;;;;;;;77.32;48.95;;;26.90;99.90;;;;;;5079839;28;20036;-65
2022/08/26 00:20:34;;;;;;;93.65;57.70;;;27.00;99.90;;;;;;5079321;28;20031;-66
2022/08/26 00:23:04;;;;;;;82.50;55.20;;;27.00;99.90;;;;;;5078356;28;20040;-67
2022/08/26 00:25:44;;;;;;;76.20;50.92;;;27.00;99.90;;;;;;5077829;28;20207;-66
2022/08/26 00:28:22;;;;;;;80.65;51.85;;;27.10;99.90;;;;;;5074419;28;20482;-67
2022/08/26 00:30:54;;;;;;;86.35;58.80;;;27.20;99.90;;;;;;5066108;28;20115;-66
2022/08/26 00:33:33;;;;;;;81.13;48.85;;;27.30;99.90;;;;;;5073711;28;20045;-68
2022/08/26 00:36:04;;;;;;;79.40;50.05;;;27.30;99.90;;;;;;5076047;28;20024;-70
2022/08/26 00:38:52;;;;;;;84.57;51.72;;;27.30;99.90;;;;;;5075704;28;20489;-66
2022/08/26 00:41:22;;;;;;;81.43;49.05;;;27.30;99.90;;;;;;5069233;28;20036;-65
2022/08/26 00:43:56;;;;;;;71.72;46.45;;;27.30;99.90;;;;;;5058035;28;20521;-66
2022/08/26 00:46:33;;;;;;;67.55;44.15;;;27.30;99.90;;;;;;5056106;28;20422;-66
2022/08/26 00:49:06;;;;;;;68.38;43.38;;;27.40;99.90;;;;;;5055916;28;20021;-66
2022/08/26 00:51:39;;;;;;;73.65;45.55;;;27.50;99.90;;;;;;5055899;28;20330;-66
2022/08/26 00:54:12;;;;;;;58.45;40.70;;;27.50;99.90;;;;;;5055873;28;20035;-65
2022/08/26 00:56:53;;;;;;;67.78;42.97;;;27.60;99.90;;;;;;5055876;28;20059;-66
2022/08/26 00:59:26;;;;;;;64.30;44.33;;;27.70;99.90;;;;;;5075853;28;20031;-67
2022/08/26 01:02:13;;;;;;;70.55;44.80;;;27.80;99.90;;;;;;5069055;28;20486;-68
2022/08/26 01:04:55;;;;;;;64.53;41.80;;;27.80;99.90;;;;;;5070314;28;20028;-67
2022/08/26 01:07:34;;;;;;;67.72;42.38;;;27.90;99.90;;;;;;5055585;28;20024;-67
2022/08/26 01:10:08;;;;;;;63.88;43.05;;;28.00;99.90;;;;;;5055216;28;20039;-70
2022/08/26 01:12:58;;;;;;;63.65;40.53;;;28.20;99.90;;;;;;5055276;28;20052;-67
2022/08/26 01:15:34;;;;;;;62.55;40.15;;;28.30;99.90;;;;;;5051397;28;20037;-66
2022/08/26 01:18:13;;;;;;;58.03;40.28;;;28.40;99.90;;;;;;5055140;28;20052;-66
2022/08/26 01:20:54;;;;;;;78.13;47.08;;;28.40;99.90;;;;;;5065274;28;20060;-65
2022/08/26 01:23:35;;;;;;;72.50;49.05;;;28.40;99.90;;;;;;5055182;28;20025;-66
2022/08/26 01:26:28;;;;;;;56.17;39.15;;;28.40;99.90;;;;;;5054904;28;20048;-65
2022/08/26 01:29:18;;;;;;;66.38;39.30;;;28.50;99.90;;;;;;5050014;28;20079;-65
2022/08/26 01:31:55;;;;;;;58.72;37.55;;;28.60;99.90;;;;;;5054976;28;20040;-67
2022/08/26 01:34:31;;;;;;;68.28;40.58;;;28.70;99.90;;;;;;5054340;28;20040;-66
2022/08/26 01:37:24;;;;;;;56.83;37.38;;;28.80;99.90;;;;;;5054940;28;20043;-66
2022/08/26 01:39:53;;;;;;;55.47;33.00;;;28.90;99.90;;;;;;5053974;28;20020;-66
2022/08/26 01:42:35;;;;;;;52.20;33.80;;;28.90;99.90;;;;;;5054767;28;20478;-65
2022/08/26 01:45:29;;;;;;;199.70;116.13;;;28.90;99.90;;;;;;5054709;28;20029;-66
2022/08/26 01:48:13;;;;;;;163.70;99.70;;;28.90;99.90;;;;;;5054477;28;20029;-66
2022/08/26 01:50:48;;;;;;;60.08;37.88;;;28.90;99.90;;;;;;5054251;28;20033;-66
2022/08/26 01:53:17;;;;;;;59.33;37.95;;;29.10;99.90;;;;;;5056595;28;20048;-67
2022/08/26 01:56:11;;;;;;;57.25;38.25;;;29.10;99.90;;;;;;5060560;28;20048;-66
2022/08/26 02:02:39;;;;;;;45.83;31.92;;;29.30;99.90;;;;;;5072561;28;20409;-66
2022/08/26 02:05:29;;;;;;;42.58;28.10;;;29.30;99.90;;;;;;5052594;28;20500;-65
2022/08/26 02:08:16;;;;;;;49.72;30.50;;;29.40;99.90;;;;;;4993160;28;20549;-64
2022/08/26 02:13:58;;;;;;;44.67;30.65;;;29.40;99.90;;;;;;4897268;29;20391;-66
2022/08/26 02:17:06;;;;;;;48.33;29.25;;;29.60;99.90;;;;;;4896786;29;20376;-70
2022/08/26 02:36:05;;;;;;;28.35;17.73;;;30.20;99.90;;;;;;4910284;29;20036;-70
2022/08/26 02:41:41;;;;;;;25.92;16.63;;;30.40;99.90;;;;;;4848321;29;20045;-70
2022/08/26 02:47:24;;;;;;;34.00;18.88;;;30.00;99.90;;;;;;4783362;30;20122;-73
2022/08/26 02:57:14;;;;;;;31.23;19.30;;;30.30;99.90;;;;;;4840680;27;8321960;-68
2022/08/26 03:00:26;;;;;;;34.63;21.83;;;30.40;99.90;;;;;;4969188;28;20047;-69
2022/08/26 03:07:20;;;;;;;44.60;21.60;;;30.20;99.90;;;;;;4777762;30;20530;-69
2022/08/26 03:10:16;;;;;;;31.15;20.98;;;30.10;99.90;;;;;;4730096;30;20060;-68
2022/08/26 03:12:44;;;;;;;35.25;21.48;;;30.10;99.90;;;;;;4730029;30;20049;-68
2022/08/26 03:15:15;;;;;;;39.58;20.33;;;30.00;99.90;;;;;;4730219;30;20191;-68
2022/08/26 03:18:03;;;;;;;28.10;19.10;;;30.20;99.90;;;;;;4730104;30;20087;-68
2022/08/26 03:20:50;;;;;;;31.02;19.42;;;30.30;99.90;;;;;;4730112;30;20547;-70
2022/08/26 03:23:27;;;;;;;24.77;17.48;;;30.30;99.90;;;;;;4729840;30;20053;-68
2022/08/26 03:32:15;;;;;;;29.33;18.48;;;31.00;99.90;;;;;;5090864;28;20462;-65
2022/08/26 03:34:42;;;;;;;34.22;17.63;;;31.00;99.90;;;;;;5090509;28;20078;-63
2022/08/26 03:37:09;;;;;;;30.48;17.13;;;31.00;99.90;;;;;;5090529;28;20500;-68
2022/08/26 03:40:14;;;;;;;25.80;15.95;;;31.00;99.90;;;;;;5090409;28;20507;-66
2022/08/26 03:42:44;;;;;;;22.00;14.95;;;31.00;99.90;;;;;;5068031;28;20040;-67
2022/08/26 03:45:27;;;;;;;23.20;14.63;;;31.00;99.90;;;;;;5067959;28;20044;-71
2022/08/26 03:47:59;;;;;;;26.05;16.77;;;31.00;99.90;;;;;;5067943;28;20094;-71
2022/08/26 03:50:31;;;;;;;28.50;18.25;;;30.90;99.90;;;;;;5068154;28;20029;-65
2022/08/26 03:53:18;;;;;;;27.95;16.42;;;31.00;99.90;;;;;;5068126;28;20128;-66
2022/08/26 03:55:53;;;;;;;25.27;16.05;;;31.10;99.90;;;;;;5028045;28;20116;-71
2022/08/26 03:58:46;;;;;;;25.13;14.52;;;31.30;99.90;;;;;;5010130;28;20033;-71
2022/08/26 04:01:28;;;;;;;28.40;14.77;;;31.30;99.90;;;;;;4988614;28;20606;-70
2022/08/26 04:04:10;;;;;;;23.30;13.77;;;31.30;99.90;;;;;;4988757;28;20034;-71
2022/08/26 04:07:31;;;;;;;22.87;13.13;;;31.40;99.90;;;;;;4988651;28;20050;-70
2022/08/26 04:09:58;;;;;;;32.75;16.40;;;31.50;99.90;;;;;;5007997;28;20030;-68
2022/08/26 04:12:36;;;;;;;22.20;13.82;;;31.50;99.90;;;;;;5030727;28;20025;-69
2022/08/26 04:15:30;;;;;;;19.35;12.30;;;31.60;99.90;;;;;;5068239;28;20377;-69
2022/08/26 04:18:26;;;;;;;23.75;11.45;;;31.60;99.90;;;;;;5045525;28;20417;-69
2022/08/26 04:21:24;;;;;;;20.83;11.07;;;31.60;99.90;;;;;;4992061;28;20061;-68
2022/08/26 04:27:05;;;;;;;17.05;11.82;;;31.50;99.90;;;;;;4890909;29;20041;-68
2022/08/26 04:29:57;;;;;;;20.95;12.15;;;31.60;99.90;;;;;;4891115;29;20148;-67
2022/08/26 04:32:24;;;;;;;18.77;11.45;;;31.70;99.90;;;;;;4854082;29;20046;-68
2022/08/26 04:34:51;;;;;;;19.42;12.45;;;31.60;99.90;;;;;;4853955;29;20037;-68
2022/08/26 04:37:17;;;;;;;17.20;12.45;;;31.60;99.90;;;;;;4853842;29;20630;-68
2022/08/26 04:39:44;;;;;;;220.45;181.75;;;31.50;99.90;;;;;;4853652;29;20586;-67
2022/08/26 04:42:12;;;;;;;82.72;57.10;;;31.60;99.90;;;;;;4846749;29;20098;-69
2022/08/26 04:44:38;;;;;;;37.42;20.02;;;31.50;99.90;;;;;;4841366;29;20045;-69
2022/08/26 04:47:05;;;;;;;33.10;20.58;;;31.50;99.90;;;;;;4841476;29;20574;-67
2022/08/26 04:49:31;;;;;;;23.42;16.05;;;31.40;99.90;;;;;;4841773;29;20129;-67
2022/08/26 04:51:58;;;;;;;21.55;15.20;;;31.50;99.90;;;;;;4841321;29;20496;-68
2022/08/26 04:54:25;;;;;;;26.77;18.63;;;31.50;99.90;;;;;;4841188;29;20045;-68
2022/08/26 04:56:51;;;;;;;28.80;13.07;;;31.70;99.90;;;;;;4843210;29;20037;-68
2022/08/26 04:59:18;;;;;;;21.33;11.52;;;31.60;99.90;;;;;;4859854;29;20021;-68
2022/08/26 05:01:47;;;;;;;15.20;9.18;;;31.60;99.90;;;;;;4876473;29;20041;-67
2022/08/26 05:04:14;;;;;;;17.00;9.25;;;31.50;99.90;;;;;;4942481;28;20035;-67
2022/08/26 05:06:41;;;;;;;23.80;12.60;;;31.40;99.90;;;;;;4973690;28;20027;-67
2022/08/26 05:09:07;;;;;;;33.83;18.40;;;31.40;99.90;;;;;;4998595;28;20501;-68
2022/08/26 05:11:34;;;;;;;26.00;14.18;;;31.40;99.90;;;;;;5038979;28;20036;-67
2022/08/26 05:14:04;;;;;;;23.00;11.98;;;31.40;99.90;;;;;;5039755;28;20096;-68
2022/08/26 05:16:32;;;;;;;15.00;9.57;;;31.50;99.90;;;;;;5049154;28;20025;-67
2022/08/26 05:18:58;;;;;;;17.48;9.02;;;31.50;99.90;;;;;;5046247;28;20533;-68
2022/08/26 05:21:27;;;;;;;16.67;8.38;;;31.50;99.90;;;;;;5046157;28;20040;-67
2022/08/26 05:23:55;;;;;;;19.70;8.80;;;31.60;99.90;;;;;;5045056;28;20029;-67
2022/08/26 05:26:27;;;;;;;17.60;9.75;;;31.70;99.90;;;;;;5044179;28;20486;-68
2022/08/26 05:28:53;;;;;;;;;;;31.80;99.90;;;;;;5046441;28;20060;-68
2022/08/26 05:31:23;;;;;;;20.20;8.43;;;31.90;99.90;;;;;;5045549;28;19983;-68
2022/08/26 05:33:50;;;;;;;14.68;6.82;;;32.00;99.90;;;;;;5039323;28;20033;-67
2022/08/26 05:36:19;;;;;;;10.80;7.15;;;32.00;99.60;;;;;;5037098;28;20020;-67
2022/08/26 05:38:47;;;;;;;10.95;6.90;;;32.00;99.80;;;;;;5039117;28;20062;-68
2022/08/26 05:41:23;;;;;;;12.60;7.93;;;32.10;99.80;;;;;;5046354;28;20033;-67
2022/08/26 05:43:51;;;;;;;12.15;7.75;;;32.10;99.90;;;;;;5049289;28;20028;-70
2022/08/26 05:46:17;;;;;;;13.13;8.40;;;32.10;99.90;;;;;;5042908;28;20040;-70
2022/08/26 05:48:44;;;;;;;15.00;9.70;;;32.10;99.20;;;;;;5041876;28;20017;-70
2022/08/26 05:51:11;;;;;;;16.08;8.98;;;32.00;99.70;;;;;;5041570;28;20408;-69
2022/08/26 05:53:39;;;;;;;17.52;10.23;;;32.00;99.90;;;;;;5040044;28;20017;-69
2022/08/26 05:56:08;;;;;;;18.05;11.13;;;31.90;99.90;;;;;;5040134;28;20108;-69
2022/08/26 05:58:36;;;;;;;27.65;13.75;;;31.90;99.90;;;;;;5043430;28;20127;-69
2022/08/26 06:01:07;;;;;;;17.52;8.90;;;31.90;99.90;;;;;;5043542;28;20071;-69
2022/08/26 06:03:38;;;;;;;14.55;9.75;;;31.80;98.60;;;;;;5044023;28;20067;-69
2022/08/26 06:06:09;;;;;;;14.75;8.95;;;31.80;99.80;;;;;;5043638;28;20025;-68
2022/08/26 06:08:38;;;;;;;14.07;8.37;;;31.90;99.00;;;;;;5044706;28;20128;-68
2022/08/26 06:11:09;;;;;;;21.08;13.82;;;31.90;98.20;;;;;;5044755;28;20378;-68
2022/08/26 06:13:37;;;;;;;18.35;9.10;;;32.00;98.10;;;;;;5044637;28;20481;-68
2022/08/26 06:16:06;;;;;;;20.55;8.35;;;32.00;98.30;;;;;;5052523;28;20366;-69
2022/08/26 06:18:36;;;;;;;16.95;8.98;;;32.10;98.60;;;;;;5046808;28;20022;-70
2022/08/26 06:21:16;;;;;;;16.67;9.15;;;32.20;98.20;;;;;;5044555;28;20031;-69
2022/08/26 06:26:32;;;;;;;15.30;8.23;;;32.30;99.40;;;;;;5046360;28;20111;-69
2022/08/26 06:28:59;;;;;;;17.95;10.80;;;32.50;98.50;;;;;;5044193;28;20021;-68
2022/08/26 06:31:28;;;;;;;12.30;8.13;;;32.70;97.80;;;;;;5045710;28;20037;-70
2022/08/26 06:33:55;;;;;;;14.45;8.48;;;32.70;98.20;;;;;;5043691;28;20045;-69
2022/08/26 06:36:25;;;;;;;14.80;9.73;;;32.70;97.50;;;;;;5044895;28;20009;-69
2022/08/26 06:38:53;;;;;;;17.48;10.45;;;32.70;96.50;;;;;;5043518;28;20021;-68
2022/08/26 06:41:21;;;;;;;11.73;8.00;;;32.60;97.70;;;;;;5041990;28;20027;-69
2022/08/26 06:43:49;;;;;;;17.10;9.02;;;32.70;97.40;;;;;;5043429;28;20036;-68
2022/08/26 06:46:18;;;;;;;18.00;10.98;;;32.70;96.70;;;;;;5042845;28;20032;-70
2022/08/26 06:48:45;;;;;;;11.88;7.10;;;32.70;96.60;;;;;;5039635;28;20425;-69
2022/08/26 06:51:16;;;;;;;13.55;8.70;;;32.60;96.00;;;;;;5031881;28;20034;-69
2022/08/26 06:53:45;;;;;;;11.77;7.57;;;32.60;95.60;;;;;;5043669;28;20017;-70
2022/08/26 06:56:14;;;;;;;15.98;10.43;;;32.50;95.40;;;;;;5032280;28;20246;-69
2022/08/26 06:58:42;;;;;;;14.48;9.18;;;32.50;96.40;;;;;;5032418;28;20032;-70
2022/08/26 07:01:18;;;;;;;17.40;11.60;;;32.50;96.00;;;;;;5040596;28;20030;-70
2022/08/26 07:03:46;;;;;;;20.42;10.30;;;32.50;96.30;;;;;;5038817;28;20111;-70
2022/08/26 07:06:13;;;;;;;14.30;8.52;;;32.40;96.60;;;;;;5042059;28;20025;-68
2022/08/26 07:08:40;;;;;;;24.80;9.10;;;32.40;96.40;;;;;;5042800;28;20021;-67
2022/08/26 07:11:10;;;;;;;12.88;8.48;;;32.40;97.10;;;;;;5043511;28;20017;-69
2022/08/26 07:13:37;;;;;;;38.08;27.08;;;32.40;96.70;;;;;;5042337;28;20022;-68
2022/08/26 07:16:12;;;;;;;23.00;13.70;;;32.40;96.40;;;;;;5046654;28;20028;-67
2022/08/26 07:18:41;;;;;;;22.15;12.55;;;32.50;95.90;;;;;;5053411;28;20044;-68
2022/08/26 07:21:10;;;;;;;23.67;10.70;;;32.40;96.60;;;;;;5053218;28;20025;-68
2022/08/26 07:23:38;;;;;;;17.55;11.27;;;32.20;96.90;;;;;;5052972;28;20025;-70
2022/08/26 07:26:08;;;;;;;24.05;10.73;;;31.80;98.30;;;;;;5053243;28;20064;-70
2022/08/26 07:28:35;;;;;;;106.68;59.10;;;31.40;99.50;;;;;;5053231;28;20533;-69
2022/08/26 07:31:14;;;;;;;31.77;20.67;;;31.20;99.90;;;;;;5052842;28;20088;-69
2022/08/26 07:33:41;;;;;;;29.70;15.93;;;30.80;99.90;;;;;;5053124;28;20075;-69
2022/08/26 07:36:09;;;;;;;27.70;16.73;;;30.50;99.90;;;;;;5053135;28;20032;-70
2022/08/26 07:38:37;;;;;;;27.13;13.88;;;30.20;99.90;;;;;;5052741;28;20075;-69
2022/08/26 07:41:05;;;;;;;17.98;10.90;;;30.00;99.90;;;;;;5053052;28;20025;-71
2022/08/26 07:43:34;;;;;;;18.55;11.13;;;29.90;99.90;;;;;;5053035;28;20539;-70
2022/08/26 07:46:01;;;;;;;21.88;12.80;;;29.70;99.90;;;;;;5052944;28;20037;-69
2022/08/26 07:48:27;;;;;;;25.55;15.10;;;29.60;99.90;;;;;;5052912;28;20391;-69
2022/08/26 07:50:54;;;;;;;16.60;11.27;;;29.60;99.90;;;;;;5052802;28;20039;-69
2022/08/26 07:53:21;;;;;;;23.50;13.88;;;29.60;99.90;;;;;;5052742;28;20021;-69
2022/08/26 07:55:48;;;;;;;30.63;15.73;;;29.60;99.90;;;;;;5052822;28;20021;-69
2022/08/26 07:58:15;;;;;;;29.77;13.15;;;29.50;99.90;;;;;;5052781;28;20017;-69
2022/08/26 08:00:42;;;;;;;24.83;15.43;;;29.60;99.90;;;;;;5052675;28;20021;-69
2022/08/26 08:03:09;;;;;;;29.08;17.40;;;29.50;99.90;;;;;;5052651;28;20029;-69
2022/08/26 08:05:36;;;;;;;39.45;25.63;;;29.20;99.90;;;;;;5052667;28;20049;-71
2022/08/26 08:08:06;;;;;;;161.95;123.22;;;29.00;99.90;;;;;;5052512;28;20033;-69
2022/08/26 08:10:35;;;;;;;280.63;197.55;;;28.90;99.90;;;;;;5052778;28;20481;-70
2022/08/26 08:13:04;;;;;;;29.05;17.48;;;29.10;99.90;;;;;;5052624;28;20100;-70
2022/08/26 08:15:31;;;;;;;20.20;9.98;;;29.10;99.90;;;;;;5052620;28;20028;-70
2022/08/26 08:17:59;;;;;;;14.25;7.20;;;29.00;99.90;;;;;;5055253;28;20020;-69
2022/08/26 08:20:25;;;;;;;19.20;16.73;;;29.00;99.90;;;;;;5056282;28;20379;-69
2022/08/26 08:22:52;;;;;;;13.00;8.45;;;28.90;99.90;;;;;;5056348;28;20078;-69
2022/08/26 08:25:22;;;;;;;18.48;10.40;;;28.80;99.90;;;;;;5056716;28;20017;-69
2022/08/26 08:27:49;;;;;;;66.07;44.83;;;28.30;99.90;;;;;;5056225;28;20017;-69
2022/08/26 08:30:18;;;;;;;63.35;46.42;;;28.10;99.90;;;;;;5055978;28;20470;-68
2022/08/26 08:32:44;;;;;;;40.22;27.25;;;28.00;99.90;;;;;;5056257;28;20025;-69
2022/08/26 08:35:14;;;;;;;28.13;15.55;;;28.00;99.90;;;;;;5056093;28;20410;-70
2022/08/26 08:37:42;;;;;;;29.20;14.13;;;28.10;99.90;;;;;;5056242;28;20021;-69
2022/08/26 08:40:11;;;;;;;25.95;13.82;;;28.10;99.90;;;;;;5056120;28;20033;-70
2022/08/26 08:42:52;;;;;;;25.80;14.25;;;28.10;99.90;;;;;;5055928;28;20056;-70
2022/08/26 08:45:22;;;;;;;26.92;15.27;;;28.00;99.90;;;;;;5056096;28;20025;-70
2022/08/26 08:47:54;;;;;;;32.63;13.50;;;27.90;99.90;;;;;;5055741;28;20131;-70
2022/08/26 08:50:27;;;;;;;22.65;12.60;;;27.90;99.90;;;;;;5055924;28;20032;-69
2022/08/26 08:53:30;;;;;;;20.85;11.40;;;27.90;99.90;;;;;;5055895;28;20032;-69
2022/08/26 08:56:26;;;;;;;22.42;12.77;;;27.90;99.90;;;;;;5055935;28;20021;-70
2022/08/26 08:59:21;;;;;;;19.15;11.13;;;27.80;99.90;;;;;;5073631;28;20028;-70
2022/08/26 09:01:51;;;;;;;14.95;9.23;;;27.80;99.90;;;;;;5073458;28;20032;-70
2022/08/26 09:04:37;;;;;;;21.92;11.68;;;27.70;99.90;;;;;;5073587;28;20047;-70
2022/08/26 09:07:09;;;;;;;25.02;13.00;;;27.80;99.90;;;;;;5073478;28;20509;-68
2022/08/26 09:10:09;;;;;;;19.27;12.48;;;28.00;99.90;;;;;;5073378;28;20040;-67
2022/08/26 09:12:35;;;;;;;20.45;11.43;;;28.00;99.90;;;;;;5033271;28;20037;-68
2022/08/26 09:15:19;;;;;;;29.35;19.27;;;28.10;99.90;;;;;;5031680;28;20422;-67
2022/08/26 09:18:17;;;;;;;41.55;35.47;;;28.00;99.90;;;;;;5023445;28;20030;-67
2022/08/26 09:20:55;;;;;;;23.27;16.63;;;28.10;99.90;;;;;;5030977;28;20140;-68
2022/08/26 09:23:24;;;;;;;36.05;24.77;;;28.10;99.90;;;;;;5023514;28;20077;-67
2022/08/26 09:25:57;;;;;;;67.72;50.05;;;27.90;99.90;;;;;;5018727;28;20100;-65
2022/08/26 09:28:24;;;;;;;;;;;27.90;99.90;;;;;;5024912;28;20521;-65
2022/08/26 09:31:13;;;;;;;48.72;34.85;;;27.90;99.90;;;;;;5023620;28;19947;-66
2022/08/26 09:33:40;;;;;;;22.25;13.10;;;27.80;99.90;;;;;;5020474;28;20064;-64
2022/08/26 09:36:22;;;;;;;22.48;13.32;;;27.60;99.90;;;;;;5023039;28;20482;-65
2022/08/26 09:38:50;;;;;;;22.50;12.07;;;27.50;99.90;;;;;;5020194;28;20026;-64
2022/08/26 09:41:31;;;;;;;27.63;15.18;;;27.50;99.90;;;;;;5019471;28;20099;-65
2022/08/26 09:44:09;;;;;;;19.13;12.68;;;27.50;99.90;;;;;;5022483;28;20073;-64
2022/08/26 09:46:41;;;;;;;23.08;11.85;;;27.40;99.90;;;;;;5023865;28;20479;-64
2022/08/26 09:49:37;;;;;;;18.55;11.57;;;27.40;99.90;;;;;;5032212;28;20081;-67
2022/08/26 09:52:25;;;;;;;156.75;109.20;;;27.40;99.90;;;;;;5062468;28;20032;-63
2022/08/26 09:55:11;;;;;;;121.13;91.35;;;27.40;99.90;;;;;;5056080;28;20056;-64
2022/08/26 09:57:50;;;;;;;51.75;33.03;;;27.40;99.90;;;;;;5045583;28;20022;-65
2022/08/26 10:00:35;;;;;;;100.22;69.00;;;27.30;99.90;;;;;;5042519;28;20026;-66
2022/08/26 10:03:07;;;;;;;40.80;28.48;;;27.40;99.90;;;;;;5044688;28;20075;-65
2022/08/26 10:05:54;;;;;;;27.80;14.07;;;27.40;99.90;;;;;;5044917;28;20385;-65
2022/08/26 10:08:27;;;;;;;13.60;10.45;;;27.30;99.90;;;;;;5050068;28;20033;-64
2022/08/26 10:10:57;;;;;;;21.17;11.32;;;27.40;99.90;;;;;;5047081;28;20021;-65
2022/08/26 10:13:26;;;;;;;14.85;8.63;;;27.40;99.90;;;;;;5043974;28;20021;-65
2022/08/26 10:16:13;;;;;;;12.07;8.23;;;27.40;99.90;;;;;;5047072;28;20083;-64
2022/08/26 10:18:51;;;;;;;11.02;5.85;;;27.40;99.90;;;;;;5043995;28;20079;-64
2022/08/26 10:21:44;;;;;;;6.97;4.50;;;27.40;99.90;;;;;;5039552;28;20021;-65
2022/08/26 10:24:18;;;;;;;48.90;43.78;;;27.20;99.90;;;;;;5042998;28;20107;-66
2022/08/26 10:26:58;;;;;;;66.00;59.75;;;27.20;99.90;;;;;;5049981;28;20033;-66
2022/08/26 10:29:41;;;;;;;14.55;10.77;;;27.20;99.90;;;;;;5053723;28;20028;-70
2022/08/26 10:32:30;;;;;;;9.80;5.10;;;27.30;99.90;;;;;;5054075;28;20041;-71
2022/08/26 10:34:56;;;;;;;11.57;5.70;;;27.30;99.90;;;;;;5054109;28;20040;-71
2022/08/26 10:37:31;;;;;;;11.32;6.55;;;27.30;99.90;;;;;;5053830;28;20021;-72
2022/08/26 10:40:06;;;;;;;7.35;5.00;;;27.30;99.90;;;;;;5048620;28;20457;-71
2022/08/26 10:42:41;;;;;;;7.15;4.30;;;27.20;99.90;;;;;;5044938;28;20028;-72
2022/08/26 10:45:24;;;;;;;7.53;4.65;;;27.20;99.90;;;;;;5053944;28;20037;-72
2022/08/26 10:47:54;;;;;;;7.43;4.45;;;27.10;99.90;;;;;;5053669;28;20033;-73
2022/08/26 10:50:36;;;;;;;8.88;5.15;;;27.10;99.90;;;;;;5053709;28;20021;-71
2022/08/26 10:53:04;;;;;;;11.57;5.93;;;27.10;99.90;;;;;;5053603;28;20017;-73
2022/08/26 10:55:56;;;;;;;11.27;4.60;;;27.10;99.90;;;;;;5041858;28;20025;-72
2022/08/26 10:58:41;;;;;;;7.63;4.70;;;27.10;99.90;;;;;;5059796;28;20033;-73
2022/08/26 11:01:41;;;;;;;7.22;4.15;;;27.00;99.90;;;;;;5071380;28;20040;-72
2022/08/26 11:04:34;;;;;;;7.10;4.85;;;27.00;99.90;;;;;;5071419;28;20086;-72
2022/08/26 11:07:29;;;;;;;7.82;4.88;;;27.00;99.90;;;;;;5071313;28;20074;-73
2022/08/26 11:10:00;;;;;;;10.98;5.15;;;26.90;99.90;;;;;;5071262;28;20032;-71
2022/08/26 11:12:35;;;;;;;8.20;4.80;;;26.90;99.90;;;;;;5071343;28;20475;-73
2022/08/26 11:15:31;;;;;;;9.63;5.55;;;26.90;99.90;;;;;;5065049;28;20531;-71
2022/08/26 11:18:18;;;;;;;12.80;6.22;;;27.00;99.90;;;;;;5058632;28;20180;-74
2022/08/26 11:20:46;;;;;;;10.98;6.43;;;27.20;99.90;;;;;;5019466;28;20038;-73
2022/08/26 11:23:13;;;;;;;9.32;5.82;;;27.20;99.90;;;;;;5020069;28;20029;-74
2022/08/26 11:26:08;;;;;;;10.85;5.85;;;27.00;99.90;;;;;;5021261;28;20525;-74
2022/08/26 11:28:38;;;;;;;8.23;6.05;;;27.00;99.90;;;;;;5022494;28;20137;-73
2022/08/26 11:31:08;;;;;;;12.10;6.55;;;27.00;99.90;;;;;;5019316;28;20073;-73
2022/08/26 11:33:47;;;;;;;19.73;8.23;;;27.10;99.90;;;;;;5028156;28;20022;-72
2022/08/26 11:36:37;;;;;;;11.15;6.97;;;27.20;99.90;;;;;;5030843;28;20041;-71
2022/08/26 11:39:13;;;;;;;11.50;6.75;;;27.10;99.90;;;;;;5031050;28;20492;-72
2022/08/26 11:41:45;;;;;;;12.40;7.22;;;26.90;99.90;;;;;;5030955;28;20026;-73
2022/08/26 11:44:18;;;;;;;14.00;7.85;;;26.90;99.90;;;;;;5031056;28;20034;-74
2022/08/26 11:46:56;;;;;;;9.20;7.22;;;26.90;99.90;;;;;;5030880;28;20041;-74
2022/08/26 11:49:27;;;;;;;10.90;7.00;;;26.90;99.90;;;;;;5031028;28;20030;-73
2022/08/26 11:52:15;;;;;;;12.45;7.90;;;26.80;99.90;;;;;;5032009;28;20037;-73
2022/08/26 11:55:02;;;;;;;11.68;7.85;;;26.90;99.90;;;;;;5016351;28;20113;-73
2022/08/26 11:57:31;;;;;;;13.77;8.43;;;27.00;99.90;;;;;;5009041;28;20041;-71
2022/08/26 11:59:58;;;;;;;13.50;8.20;;;27.10;99.90;;;;;;5026626;28;20014;-71
2022/08/26 12:02:26;;;;;;;11.18;8.63;;;27.00;99.90;;;;;;5025018;28;20105;-71
2022/08/26 12:04:55;;;;;;;17.10;9.95;;;27.00;99.90;;;;;;5026284;28;20022;-72
2022/08/26 12:07:26;;;;;;;16.95;10.27;;;27.10;99.90;;;;;;5026824;28;20029;-71
2022/08/26 12:09:57;;;;;;;15.23;10.97;;;27.10;99.90;;;;;;5026919;28;20017;-71
2022/08/26 12:12:29;;;;;;;17.42;9.95;;;27.20;99.90;;;;;;5025893;28;20025;-71
2022/08/26 12:15:17;;;;;;;16.30;9.65;;;27.20;99.90;;;;;;5032619;28;20022;-73
2022/08/26 12:17:48;;;;;;;20.13;10.23;;;27.20;99.90;;;;;;5026988;28;20018;-72
2022/08/26 12:20:28;;;;;;;14.98;9.82;;;27.10;99.90;;;;;;5025942;28;20059;-70
2022/08/26 12:22:57;;;;;;;21.38;10.55;;;27.10;99.90;;;;;;5029406;28;20164;-71
2022/08/26 12:25:27;;;;;;;23.30;9.77;;;27.10;99.90;;;;;;5030031;28;20053;-69
2022/08/26 12:28:01;;;;;;;21.08;11.85;;;27.10;99.90;;;;;;5025792;28;20030;-72
2022/08/26 12:30:30;;;;;;;25.35;11.98;;;27.10;99.90;;;;;;5032600;28;20043;-73
2022/08/26 12:33:10;;;;;;;26.67;13.38;;;27.20;99.90;;;;;;5054605;28;20075;-73
2022/08/26 12:35:38;;;;;;;30.83;14.25;;;27.00;99.90;;;;;;5056350;28;20178;-72
2022/08/26 12:38:07;;;;;;;27.65;14.70;;;27.00;99.90;;;;;;5056226;28;20052;-73
2022/08/26 12:40:38;;;;;;;33.90;16.38;;;27.00;99.90;;;;;;5056040;28;20037;-72
2022/08/26 12:43:07;;;;;;;36.05;16.63;;;27.10;99.90;;;;;;5056132;28;20029;-72
2022/08/26 12:45:42;;;;;;;34.17;16.92;;;27.10;99.90;;;;;;5056060;28;20504;-73
2022/08/26 12:48:12;;;;;;;30.42;16.63;;;27.10;99.90;;;;;;5056039;28;20075;-72
2022/08/26 12:50:49;;;;;;;31.00;15.13;;;27.00;99.90;;;;;;5055943;28;20082;-72
2022/08/26 12:53:21;;;;;;;26.08;13.60;;;27.00;99.90;;;;;;5055837;28;20524;-72
2022/08/26 12:55:50;;;;;;;21.50;11.95;;;27.00;99.90;;;;;;5054537;28;20390;-72
2022/08/26 12:58:27;;;;;;;24.65;12.07;;;27.00;99.90;;;;;;5055763;28;20104;-73
2022/08/26 13:01:03;;;;;;;21.05;12.27;;;27.00;99.90;;;;;;5055754;28;20077;-69
2022/08/26 13:03:30;;;;;;;19.98;11.27;;;27.00;99.90;;;;;;5055010;28;20028;-70
2022/08/26 13:06:13;;;;;;;23.67;11.00;;;27.00;99.90;;;;;;5049931;28;20017;-69
2022/08/26 13:08:42;;;;;;;17.35;11.10;;;27.00;99.90;;;;;;5048296;28;20063;-67
2022/08/26 13:11:11;;;;;;;31.00;21.20;;;27.00;99.90;;;;;;5050988;28;20116;-66
2022/08/26 13:13:38;;;;;;;29.70;17.83;;;27.00;99.90;;;;;;5045422;28;20382;-67
2022/08/26 13:16:05;;;;;;;23.90;16.20;;;27.00;99.90;;;;;;5043966;28;20490;-67
2022/08/26 13:18:32;;;;;;;23.25;15.75;;;27.00;99.90;;;;;;5044903;28;20104;-66
2022/08/26 13:20:58;;;;;;;22.48;14.23;;;26.90;99.90;;;;;;5047997;28;20025;-66
2022/08/26 13:23:25;;;;;;;22.48;13.80;;;26.80;99.90;;;;;;5049891;28;20025;-67
2022/08/26 13:25:54;;;;;;;22.65;13.80;;;26.70;99.90;;;;;;5042727;28;20022;-66
2022/08/26 13:28:20;;;;;;;23.98;13.45;;;26.80;99.90;;;;;;5036082;28;20037;-67
2022/08/26 13:30:48;;;;;;;17.83;13.20;;;26.80;99.90;;;;;;5034860;28;20050;-67
2022/08/26 13:33:17;;;;;;;24.58;14.68;;;26.90;99.90;;;;;;5035075;28;20394;-67
2022/08/26 13:35:46;;;;;;;22.52;13.48;;;26.90;99.90;;;;;;5035173;28;20171;-67
2022/08/26 13:38:13;;;;;;;31.80;14.15;;;26.90;99.90;;;;;;5035035;28;20463;-67
2022/08/26 13:40:44;;;;;;;24.08;13.40;;;26.90;99.90;;;;;;5034969;28;20112;-67
2022/08/26 13:43:11;;;;;;;24.80;13.73;;;26.90;99.90;;;;;;5035032;28;20108;-67
2022/08/26 13:45:38;;;;;;;31.23;15.93;;;26.90;99.90;;;;;;5035153;28;20025;-65
2022/08/26 13:48:06;;;;;;;31.30;16.48;;;26.90;99.90;;;;;;5035247;28;20080;-64
2022/08/26 13:50:35;;;;;;;26.85;15.73;;;26.90;99.90;;;;;;5035106;28;20049;-66
2022/08/26 13:53:02;;;;;;;28.02;15.82;;;26.90;99.90;;;;;;5035094;28;20029;-66
2022/08/26 13:55:28;;;;;;;34.08;15.00;;;26.90;99.90;;;;;;5035055;28;20028;-66
2022/08/26 13:57:55;;;;;;;28.23;15.65;;;26.90;99.90;;;;;;5034966;28;20033;-66
2022/08/26 14:00:22;;;;;;;31.25;16.10;;;26.90;99.90;;;;;;5034951;28;20055;-66
2022/08/26 14:02:48;;;;;;;31.92;16.67;;;26.90;99.90;;;;;;5035198;28;20368;-66